createdAt,value
2023-04-18T00:01:29.415Z,82.41
2023-04-18T00:04:35.473Z,83.10
2023-04-18T00:07:46.280Z,81.62
2023-04-18T00:10:52.362Z,83.69
2023-04-18T00:14:00.172Z,79.46
2023-04-18T00:18:12.960Z,82.03
2023-04-18T00:21:25.917Z,83.33
2023-04-18T00:24:34.595Z,85.09
2023-04-18T00:27:42.665Z,78.65
2023-04-18T00:30:51.073Z,79.87
2023-04-18T00:33:57.910Z,81.31
2023-04-18T00:37:04.014Z,82.52
2023-04-18T00:40:21.772Z,80.53
2023-04-18T00:43:28.490Z,83.54
2023-04-18T00:46:35.319Z,83.74
2023-04-18T00:49:42.010Z,82.26
2023-04-18T00:52:52.621Z,81.20
2023-04-18T00:56:01.602Z,80.17
2023-04-18T00:59:10.511Z,78.79
2023-04-18T01:02:17.816Z,79.04
2023-04-18T01:05:41.739Z,81.41
2023-04-18T01:08:49.282Z,85.44
2023-04-18T01:12:00.675Z,83.29
2023-04-18T01:15:07.851Z,83.16
2023-04-18T01:18:17.528Z,77.74
2023-04-18T01:22:12.659Z,82.48
2023-04-18T01:25:23.498Z,82.72
2023-04-18T01:28:30.166Z,85.56
2023-04-18T01:31:39.205Z,80.94
2023-04-18T01:34:46.439Z,82.25
2023-04-18T01:37:59.468Z,86.15
2023-04-18T01:41:16.836Z,86.63
2023-04-18T01:44:23.753Z,85.32
2023-04-18T01:47:29.803Z,87.19
2023-04-18T01:50:36.823Z,88.11
2023-04-18T01:53:42.886Z,92.18
2023-04-18T01:56:53.187Z,86.23
2023-04-18T01:59:59.541Z,88.35
2023-04-18T02:03:07.011Z,86.40
2023-04-18T02:06:13.259Z,87.55
2023-04-18T02:09:20.411Z,86.25
2023-04-18T02:12:29.169Z,86.56
2023-04-18T02:15:36.254Z,91.94
2023-04-18T02:18:42.218Z,89.71
2023-04-18T02:21:49.095Z,91.30
2023-04-18T02:24:55.109Z,94.75
2023-04-18T02:28:16.811Z,95.06
2023-04-18T02:31:44.921Z,95.29
2023-04-18T02:34:55.012Z,95.56
2023-04-18T02:38:01.356Z,95.17
2023-04-18T02:41:15.369Z,91.34
2023-04-18T02:44:28.318Z,97.29
2023-04-18T02:47:47.077Z,97.14
2023-04-18T02:51:04.263Z,93.23
2023-04-18T02:54:13.284Z,91.59
2023-04-18T02:57:42.010Z,97.78
2023-04-18T03:01:13.355Z,97.49
2023-04-18T03:04:41.875Z,94.60
2023-04-18T03:07:49.583Z,92.41
2023-04-18T03:10:57.170Z,90.88
2023-04-18T03:14:06.015Z,88.64
2023-04-18T03:17:36.531Z,86.22
2023-04-18T03:20:45.783Z,84.38
2023-04-18T03:23:53.422Z,92.11
2023-04-18T03:27:02.492Z,94.29
2023-04-18T03:30:15.364Z,101.55
2023-04-18T03:33:29.079Z,106.06
2023-04-18T03:36:47.295Z,98.19
2023-04-18T03:39:55.109Z,100.38
2023-04-18T03:43:05.036Z,115.74
2023-04-18T03:46:12.116Z,117.36
2023-04-18T03:49:20.989Z,110.18
2023-04-18T03:52:29.839Z,101.63
2023-04-18T03:55:36.744Z,121.06
2023-04-18T03:58:44.205Z,113.82
2023-04-18T04:01:50.909Z,107.61
2023-04-18T04:05:12.158Z,110.46
2023-04-18T04:08:31.798Z,115.25
2023-04-18T04:11:38.800Z,109.94
2023-04-18T04:14:53.845Z,117.62
2023-04-18T04:18:00.735Z,121.98
2023-04-18T04:21:21.154Z,124.68
2023-04-18T04:24:33.193Z,124.89
2023-04-18T04:27:39.750Z,128.52
2023-04-18T04:30:49.179Z,128.67
2023-04-18T04:33:55.856Z,130.34
2023-04-18T04:37:06.500Z,134.35
2023-04-18T04:40:19.569Z,145.40
2023-04-18T04:44:04.502Z,146.19
2023-04-18T04:47:14.405Z,153.67
2023-04-18T04:50:22.564Z,149.42
2023-04-18T04:53:33.344Z,149.28
2023-04-18T04:56:41.657Z,148.34
2023-04-18T04:59:47.665Z,152.22
2023-04-18T05:02:55.664Z,149.15
2023-04-18T05:06:03.222Z,148.93
2023-04-18T05:09:12.567Z,141.81
2023-04-18T05:12:18.445Z,140.05
2023-04-18T05:15:25.942Z,143.40
2023-04-18T05:18:34.361Z,141.18
2023-04-18T05:21:43.797Z,148.94
2023-04-18T05:24:52.422Z,145.85
2023-04-18T05:27:59.112Z,146.56
2023-04-18T05:31:05.166Z,143.74
2023-04-18T05:34:12.382Z,142.90
2023-04-18T05:37:18.696Z,134.26
2023-04-18T05:40:30.332Z,136.64
2023-04-18T05:43:36.143Z,127.33
2023-04-18T05:46:43.080Z,127.92
2023-04-18T05:49:49.086Z,128.68
2023-04-18T05:52:59.150Z,124.31
2023-04-18T05:56:08.880Z,126.27
2023-04-18T05:59:16.410Z,126.29
2023-04-18T06:02:22.620Z,131.66
2023-04-18T06:05:32.792Z,117.58
2023-04-18T06:08:38.800Z,119.37
2023-04-18T06:11:48.224Z,124.13
2023-04-18T06:14:54.159Z,121.83
2023-04-18T06:18:00.958Z,121.83
2023-04-18T06:21:06.956Z,113.19
2023-04-18T06:24:13.867Z,120.49
2023-04-18T06:27:30.516Z,124.43
2023-04-18T06:30:38.088Z,119.54
2023-04-18T06:33:43.925Z,126.71
2023-04-18T06:36:50.840Z,122.21
2023-04-18T06:39:56.873Z,130.42
2023-04-18T06:43:06.548Z,125.96
2023-04-18T06:46:12.675Z,125.97
2023-04-18T06:49:20.770Z,127.57
2023-04-18T06:52:31.202Z,125.44
2023-04-18T06:55:39.013Z,123.49
2023-04-18T06:58:47.841Z,118.11
2023-04-18T07:01:54.903Z,116.49
2023-04-18T07:05:00.988Z,130.64
2023-04-18T07:08:07.757Z,127.08
2023-04-18T07:11:15.972Z,122.01
2023-04-18T07:14:28.785Z,117.30
2023-04-18T07:17:36.283Z,126.02
2023-04-18T07:20:45.968Z,122.98
2023-04-18T07:23:52.512Z,119.69
2023-04-18T07:26:59.846Z,123.40
2023-04-18T07:30:10.813Z,123.26
2023-04-18T07:33:17.884Z,128.42
2023-04-18T07:36:24.566Z,118.02
2023-04-18T07:39:32.235Z,108.90
2023-04-18T07:42:40.836Z,116.67
2023-04-18T07:45:50.237Z,114.85
2023-04-18T07:48:56.090Z,119.62
2023-04-18T07:52:02.976Z,119.23
2023-04-18T07:55:10.949Z,118.95
2023-04-18T07:58:17.866Z,111.80
2023-04-18T08:01:27.588Z,108.09
2023-04-18T08:04:34.611Z,111.85
2023-04-18T08:07:40.668Z,113.95
2023-04-18T08:10:47.499Z,111.87
2023-04-18T08:13:53.570Z,108.63
2023-04-18T08:17:02.905Z,109.22
2023-04-18T08:20:10.630Z,109.86
2023-04-18T08:23:17.438Z,106.40
2023-04-18T08:26:23.458Z,105.28
2023-04-18T08:29:30.212Z,111.44
2023-04-18T08:32:39.950Z,111.40
2023-04-18T08:35:46.836Z,104.35
2023-04-18T08:38:52.899Z,107.36
2023-04-18T08:42:03.511Z,104.19
2023-04-18T08:45:14.071Z,104.57
2023-04-18T08:48:23.355Z,103.99
2023-04-18T08:51:33.653Z,105.55
2023-04-18T08:54:42.318Z,107.72
2023-04-18T08:57:48.485Z,106.18
2023-04-18T09:00:56.582Z,97.39
2023-04-18T09:04:08.384Z,94.85
2023-04-18T09:07:16.834Z,93.01
2023-04-18T09:10:46.843Z,93.95
2023-04-18T09:13:53.747Z,88.81
2023-04-18T09:17:00.556Z,83.95
2023-04-18T09:20:41.559Z,85.97
2023-04-18T09:23:48.039Z,83.54
2023-04-18T09:26:57.461Z,83.42
2023-04-18T09:30:03.357Z,80.10
2023-04-18T09:33:13.106Z,81.32
2023-04-18T09:36:28.022Z,78.62
2023-04-18T09:39:34.812Z,79.99
2023-04-18T09:42:41.223Z,79.57
2023-04-18T09:45:50.099Z,78.99
2023-04-18T09:48:56.123Z,76.84
2023-04-18T09:52:11.623Z,77.61
2023-04-18T09:55:21.577Z,73.73
2023-04-18T09:58:42.421Z,69.46
2023-04-18T10:01:48.823Z,71.86
2023-04-18T10:05:25.012Z,76.09
2023-04-18T10:08:36.018Z,71.40
2023-04-18T10:11:43.702Z,68.49
2023-04-18T10:14:50.423Z,74.76
2023-04-18T10:18:05.248Z,72.99
2023-04-18T10:21:12.894Z,71.09
2023-04-18T10:24:53.720Z,72.39
2023-04-18T10:28:16.527Z,71.71
2023-04-18T10:31:26.276Z,67.07
2023-04-18T10:34:32.205Z,64.93
2023-04-18T10:38:05.982Z,65.04
2023-04-18T10:41:29.916Z,67.56
2023-04-18T10:44:36.702Z,63.97
2023-04-18T10:47:42.773Z,65.43
2023-04-18T10:51:22.293Z,67.99
2023-04-18T10:54:42.113Z,63.53
2023-04-18T10:57:56.984Z,60.65
2023-04-18T11:01:09.252Z,61.11
2023-04-18T11:04:17.090Z,62.03
2023-04-18T11:07:23.463Z,57.42
2023-04-18T11:10:31.245Z,58.56
2023-04-18T11:13:39.965Z,57.74
2023-04-18T11:16:46.991Z,52.11
2023-04-18T11:19:53.939Z,53.70
2023-04-18T11:23:03.008Z,55.63
2023-04-18T11:26:09.588Z,52.13
2023-04-18T11:29:21.008Z,56.11
2023-04-18T11:32:27.425Z,55.02
2023-04-18T11:35:34.483Z,56.89
2023-04-18T11:38:44.521Z,55.51
2023-04-18T11:41:53.291Z,57.90
2023-04-18T11:45:05.044Z,60.55
2023-04-18T11:48:11.895Z,59.64
2023-04-18T11:51:38.880Z,59.77
2023-04-18T11:54:47.990Z,60.43
2023-04-18T11:57:56.284Z,56.81
2023-04-18T12:01:20.149Z,56.09
2023-04-18T12:04:26.468Z,53.46
2023-04-18T12:07:41.957Z,51.83
2023-04-18T12:10:52.080Z,53.45
2023-04-18T12:14:01.637Z,54.15
2023-04-18T12:17:11.570Z,53.70
2023-04-18T12:20:18.711Z,56.08
2023-04-18T12:23:37.478Z,56.23
2023-04-18T12:26:49.482Z,55.83
2023-04-18T12:29:55.387Z,58.76
2023-04-18T12:33:06.994Z,61.31
2023-04-18T12:36:13.350Z,62.51
2023-04-18T12:39:20.077Z,58.94
2023-04-18T12:42:26.028Z,61.45
2023-04-18T12:45:33.238Z,57.49
2023-04-18T12:48:41.770Z,59.57
2023-04-18T12:51:51.697Z,66.34
2023-04-18T12:54:58.471Z,65.75
2023-04-18T12:58:05.612Z,64.91
2023-04-18T13:01:11.547Z,60.56
2023-04-18T13:04:21.413Z,65.27
2023-04-18T13:07:28.064Z,53.26
2023-04-18T13:10:35.434Z,53.09
2023-04-18T13:13:41.431Z,55.58
2023-04-18T13:16:49.035Z,50.75
2023-04-18T13:19:57.787Z,41.90
2023-04-18T13:23:06.233Z,41.76
2023-04-18T13:26:12.365Z,43.39
2023-04-18T13:29:19.307Z,50.07
2023-04-18T13:32:25.696Z,45.49
2023-04-18T13:35:35.165Z,46.90
2023-04-18T13:38:41.057Z,45.55
2023-04-18T13:41:47.957Z,46.86
2023-04-18T13:44:54.255Z,75.32
2023-04-18T13:48:08.071Z,58.34
2023-04-18T13:51:22.345Z,44.63
2023-04-18T13:54:30.683Z,43.83
2023-04-18T13:57:37.634Z,57.12
2023-04-18T14:00:44.295Z,62.61
2023-04-18T14:03:50.499Z,53.27
2023-04-18T14:07:00.384Z,45.60
2023-04-18T14:10:09.690Z,61.27
2023-04-18T14:13:16.948Z,58.28
2023-04-18T14:16:26.372Z,54.03
2023-04-18T14:19:33.270Z,47.74
2023-04-18T14:22:41.873Z,47.28
2023-04-18T14:25:49.337Z,58.83
2023-04-18T14:28:55.260Z,65.64
2023-04-18T14:32:08.103Z,64.60
2023-04-18T14:35:23.685Z,60.90
2023-04-18T14:38:33.123Z,62.59
2023-04-18T14:41:39.069Z,67.47
2023-04-18T14:44:46.293Z,69.96
2023-04-18T14:47:52.444Z,62.48
2023-04-18T14:51:06.524Z,67.91
2023-04-18T14:54:15.300Z,61.94
2023-04-18T14:57:22.398Z,60.88
2023-04-18T15:00:28.682Z,61.75
2023-04-18T15:03:41.243Z,62.76
2023-04-18T15:06:47.289Z,64.24
2023-04-18T15:10:01.774Z,59.94
2023-04-18T15:13:08.071Z,54.68
2023-04-18T15:16:15.039Z,55.52
2023-04-18T15:19:21.021Z,53.96
2023-04-18T15:22:28.113Z,50.78
2023-04-18T15:25:36.695Z,53.36
2023-04-18T15:28:43.496Z,58.73
2023-04-18T15:31:49.813Z,64.80
2023-04-18T15:34:56.708Z,63.61
2023-04-18T15:38:02.651Z,67.80
2023-04-18T15:41:15.026Z,62.76
2023-04-18T15:44:21.036Z,62.94
2023-04-18T15:47:28.474Z,62.78
2023-04-18T15:50:34.468Z,66.82
2023-04-18T15:53:41.728Z,69.16
2023-04-18T15:56:50.220Z,67.29
2023-04-18T15:59:57.075Z,69.28
2023-04-18T16:03:03.131Z,72.55
2023-04-18T16:06:10.252Z,76.14
2023-04-18T16:09:16.663Z,77.17
2023-04-18T16:12:26.078Z,75.41
2023-04-18T16:15:35.864Z,71.00
2023-04-18T16:18:43.159Z,79.22
2023-04-18T16:21:49.407Z,81.04
2023-04-18T16:24:56.557Z,83.02
2023-04-18T16:28:05.223Z,78.47
2023-04-18T16:31:12.113Z,78.98
2023-04-18T16:34:18.432Z,83.62
2023-04-18T16:37:25.332Z,85.88
2023-04-18T16:40:32.256Z,83.71
2023-04-18T16:43:44.957Z,87.16
2023-04-18T16:46:52.642Z,86.42
2023-04-18T16:50:00.932Z,83.46
2023-04-18T16:53:27.984Z,94.31
2023-04-18T16:56:35.126Z,98.14
2023-04-18T16:59:46.076Z,93.77
2023-04-18T17:02:56.308Z,103.67
2023-04-18T17:06:02.388Z,106.34
2023-04-18T17:09:09.242Z,111.85
2023-04-18T17:12:15.197Z,117.95
2023-04-18T17:15:25.432Z,119.56
2023-04-18T17:18:31.525Z,114.89
2023-04-18T17:21:39.215Z,111.23
2023-04-18T17:24:45.461Z,105.30
2023-04-18T17:27:52.381Z,105.75
2023-04-18T17:31:05.082Z,108.69
2023-04-18T17:34:11.957Z,104.75
2023-04-18T17:37:17.944Z,108.11
2023-04-18T17:40:25.107Z,110.09
2023-04-18T17:43:31.483Z,113.60
2023-04-18T17:46:48.192Z,116.57
2023-04-18T17:49:55.029Z,112.30
2023-04-18T17:53:01.814Z,115.12
2023-04-18T17:56:15.214Z,111.45
2023-04-18T17:59:22.127Z,110.21
2023-04-18T18:02:31.229Z,107.51
2023-04-18T18:05:38.146Z,107.54
2023-04-18T18:08:46.209Z,106.63
2023-04-18T18:11:55.772Z,110.13
2023-04-18T18:15:04.950Z,111.27
2023-04-18T18:18:15.322Z,116.17
2023-04-18T18:21:21.397Z,117.46
2023-04-18T18:24:28.479Z,127.23
2023-04-18T18:27:34.762Z,121.39
2023-04-18T18:30:41.559Z,133.38
2023-04-18T18:33:50.111Z,133.89
2023-04-18T18:36:59.541Z,136.44
2023-04-18T18:40:08.629Z,129.44
2023-04-18T18:43:16.768Z,116.51
2023-04-18T18:46:22.936Z,115.56
2023-04-18T18:49:32.373Z,116.21
2023-04-18T18:52:40.956Z,116.04
2023-04-18T18:55:55.881Z,119.05
2023-04-18T18:59:05.061Z,115.71
2023-04-18T19:02:11.985Z,116.37
2023-04-18T19:05:21.626Z,119.00
2023-04-18T19:08:28.480Z,120.43
2023-04-18T19:11:35.055Z,130.70
2023-04-18T19:14:56.018Z,133.76
2023-04-18T19:18:02.133Z,132.19
2023-04-18T19:21:13.695Z,132.32
2023-04-18T19:24:20.985Z,144.11
2023-04-18T19:27:27.845Z,144.08
2023-04-18T19:30:33.861Z,127.56
2023-04-18T19:33:41.696Z,123.51
2023-04-18T19:36:50.246Z,127.84
2023-04-18T19:40:02.987Z,129.14
2023-04-18T19:43:09.105Z,139.68
2023-04-18T19:46:16.340Z,148.06
2023-04-18T19:49:22.716Z,161.97
2023-04-18T19:52:35.459Z,167.67
2023-04-18T19:55:44.309Z,167.31
2023-04-18T19:58:51.383Z,170.46
2023-04-18T20:02:00.564Z,167.47
2023-04-18T20:05:23.247Z,171.56
2023-04-18T20:08:31.857Z,184.07
2023-04-18T20:11:38.583Z,186.62
2023-04-18T20:14:45.515Z,189.17
2023-04-18T20:17:54.551Z,188.49
2023-04-18T20:21:00.789Z,187.86
2023-04-18T20:24:12.083Z,193.95
2023-04-18T20:27:20.738Z,208.30
2023-04-18T20:30:27.890Z,213.79
2023-04-18T20:33:36.437Z,220.13
2023-04-18T20:36:44.106Z,233.24
2023-04-18T20:39:53.204Z,263.44
2023-04-18T20:43:10.246Z,270.09
2023-04-18T20:46:29.679Z,266.97
2023-04-18T20:49:43.298Z,249.17
2023-04-18T20:52:49.389Z,447.46
2023-04-18T20:55:58.851Z,321.96
2023-04-18T20:59:04.950Z,245.53
2023-04-18T21:02:12.133Z,241.59
2023-04-18T21:05:18.061Z,244.16
2023-04-18T21:08:24.866Z,248.43
2023-04-18T21:11:33.462Z,251.38
2023-04-18T21:14:40.273Z,249.81
2023-04-18T21:17:46.287Z,262.63
2023-04-18T21:20:53.449Z,267.95
2023-04-18T21:23:59.385Z,435.39
2023-04-18T21:27:13.676Z,366.75
2023-04-18T21:30:19.636Z,282.13
2023-04-18T21:33:26.495Z,308.65
2023-04-18T21:36:34.294Z,317.53
2023-04-18T21:39:46.257Z,337.62
2023-04-18T21:42:54.757Z,532.03
2023-04-18T21:46:01.517Z,532.48
2023-04-18T21:49:16.371Z,341.51
2023-04-18T21:52:23.134Z,357.31
2023-04-18T21:55:29.228Z,369.57
2023-04-18T21:58:38.887Z,384.56
2023-04-18T22:01:49.082Z,394.44
2023-04-18T22:04:56.116Z,404.90
2023-04-18T22:08:03.264Z,414.09
2023-04-18T22:11:11.903Z,383.51
2023-04-18T22:14:23.785Z,367.34
2023-04-18T22:17:31.885Z,382.01
2023-04-18T22:20:39.275Z,410.90
2023-04-18T22:23:46.003Z,399.20
2023-04-18T22:26:52.004Z,391.52
2023-04-18T22:30:04.361Z,387.35
2023-04-18T22:33:10.527Z,393.12
2023-04-18T22:36:27.886Z,389.95
2023-04-18T22:39:34.300Z,353.32
2023-04-18T22:42:41.164Z,341.52
2023-04-18T22:45:49.785Z,345.40
2023-04-18T22:49:02.846Z,353.32
2023-04-18T22:52:12.235Z,348.73
2023-04-18T22:55:24.263Z,612.80
2023-04-18T22:58:31.651Z,512.75
2023-04-18T23:01:41.110Z,392.95
2023-04-18T23:04:47.345Z,384.72
2023-04-18T23:07:54.201Z,361.45
2023-04-18T23:11:00.118Z,352.59
2023-04-18T23:14:29.266Z,372.62
2023-04-18T23:17:37.916Z,385.52
2023-04-18T23:20:44.810Z,387.74
2023-04-18T23:23:50.976Z,379.94
2023-04-18T23:26:58.067Z,380.61
2023-04-18T23:30:04.120Z,387.45
2023-04-18T23:33:13.614Z,395.67
2023-04-18T23:36:24.262Z,394.34
2023-04-18T23:39:33.243Z,384.55
2023-04-18T23:42:44.278Z,376.97
2023-04-18T23:45:51.090Z,360.08
2023-04-18T23:48:59.526Z,354.33
2023-04-18T23:52:07.541Z,352.40
2023-04-18T23:55:13.945Z,353.12
2023-04-18T23:58:20.700Z,358.46
